createdAt,value
2023-10-06T00:01:44.148Z,6.75
2023-10-06T00:04:16.529Z,7.47
2023-10-06T00:06:44.413Z,7.20
2023-10-06T00:09:22.573Z,6.90
2023-10-06T00:11:51.680Z,7.80
2023-10-06T00:14:40.299Z,7.38
2023-10-06T00:17:17.182Z,6.82
2023-10-06T00:19:45.214Z,7.55
2023-10-06T00:22:15.584Z,7.18
2023-10-06T00:24:44.192Z,7.22
2023-10-06T00:27:12.714Z,6.35
2023-10-06T00:29:44.993Z,6.75
2023-10-06T00:32:24.463Z,6.93
2023-10-06T00:34:55.716Z,6.85
2023-10-06T00:37:25.927Z,7.75
2023-10-06T00:39:57.523Z,7.07
2023-10-06T00:42:24.785Z,6.90
2023-10-06T00:44:54.813Z,6.85
2023-10-06T00:47:22.791Z,6.97
2023-10-06T00:49:55.904Z,6.07
2023-10-06T00:52:23.176Z,5.95
2023-10-06T00:54:51.199Z,6.20
2023-10-06T00:57:20.689Z,6.30
2023-10-06T00:59:47.985Z,7.10
2023-10-06T01:02:17.353Z,6.68
2023-10-06T01:04:46.767Z,7.60
2023-10-06T01:07:15.034Z,6.20
2023-10-06T01:09:58.968Z,6.15
2023-10-06T01:12:27.374Z,6.43
2023-10-06T01:15:14.695Z,6.32
2023-10-06T01:17:42.379Z,6.85
2023-10-06T01:20:11.999Z,6.10
2023-10-06T01:22:45.579Z,6.20
2023-10-06T01:25:22.333Z,6.45
2023-10-06T01:27:51.693Z,6.97
2023-10-06T01:30:20.504Z,6.60
2023-10-06T01:32:52.363Z,6.57
2023-10-06T01:35:24.997Z,6.53
2023-10-06T01:37:58.646Z,6.18
2023-10-06T01:40:25.932Z,6.20
2023-10-06T01:42:53.731Z,6.28
2023-10-06T01:45:23.984Z,5.70
2023-10-06T01:47:58.314Z,5.78
2023-10-06T01:50:28.684Z,6.68
2023-10-06T01:52:59.991Z,6.30
2023-10-06T01:55:27.317Z,6.70
2023-10-06T01:57:55.573Z,6.57
2023-10-06T02:00:28.168Z,6.43
2023-10-06T02:02:55.446Z,5.72
2023-10-06T02:05:22.879Z,6.18
2023-10-06T02:07:50.337Z,6.13
2023-10-06T02:10:19.758Z,7.07
2023-10-06T02:12:47.081Z,6.35
2023-10-06T02:15:14.436Z,7.07
2023-10-06T02:17:42.478Z,6.78
2023-10-06T02:20:29.999Z,6.80
2023-10-06T02:23:02.006Z,6.47
2023-10-06T02:25:29.873Z,6.50
2023-10-06T02:28:01.034Z,6.72
2023-10-06T02:30:42.672Z,7.07
2023-10-06T02:33:12.517Z,7.00
2023-10-06T02:35:47.370Z,7.55
2023-10-06T02:38:16.556Z,6.53
2023-10-06T02:40:46.982Z,6.50
2023-10-06T02:43:17.700Z,7.18
2023-10-06T02:45:45.882Z,7.18
2023-10-06T02:48:17.195Z,7.00
2023-10-06T02:50:47.940Z,7.60
2023-10-06T02:53:15.792Z,6.80
2023-10-06T02:55:46.550Z,7.30
2023-10-06T02:58:32.095Z,7.10
2023-10-06T03:00:59.611Z,6.45
2023-10-06T03:03:30.796Z,6.50
2023-10-06T03:05:59.459Z,7.47
2023-10-06T03:08:29.552Z,7.60
2023-10-06T03:10:57.360Z,7.50
2023-10-06T03:13:37.946Z,6.90
2023-10-06T03:16:11.740Z,7.70
2023-10-06T03:18:40.644Z,7.57
2023-10-06T03:21:31.265Z,7.57
2023-10-06T03:24:06.638Z,8.85
2023-10-06T03:26:39.954Z,7.28
2023-10-06T03:29:12.871Z,7.72
2023-10-06T03:31:46.468Z,7.53
2023-10-06T03:34:23.991Z,7.50
2023-10-06T03:36:54.673Z,7.57
2023-10-06T03:42:07.373Z,7.47
2023-10-06T03:44:35.983Z,7.28
2023-10-06T03:47:08.982Z,7.47
2023-10-06T03:49:36.671Z,7.55
2023-10-06T03:52:10.685Z,6.88
2023-10-06T03:54:38.426Z,7.18
2023-10-06T03:57:05.738Z,7.90
2023-10-06T03:59:33.806Z,7.55
2023-10-06T04:02:04.236Z,7.28
2023-10-06T04:04:31.933Z,7.55
2023-10-06T04:06:59.795Z,7.57
2023-10-06T04:09:30.340Z,7.45
2023-10-06T04:12:02.806Z,8.32
2023-10-06T04:14:33.030Z,8.20
2023-10-06T04:17:02.546Z,7.35
2023-10-06T04:19:30.448Z,7.47
2023-10-06T04:21:57.708Z,8.25
2023-10-06T04:24:25.017Z,7.63
2023-10-06T04:26:53.219Z,8.07
2023-10-06T04:29:20.665Z,7.55
2023-10-06T04:31:47.904Z,8.85
2023-10-06T04:34:15.581Z,8.52
2023-10-06T04:36:44.385Z,8.27
2023-10-06T04:39:12.740Z,9.50
2023-10-06T04:41:42.522Z,8.13
2023-10-06T04:44:11.466Z,8.68
2023-10-06T04:46:38.928Z,7.65
2023-10-06T04:49:08.837Z,8.52
2023-10-06T04:51:36.334Z,8.60
2023-10-06T04:54:04.243Z,9.15
2023-10-06T04:56:33.914Z,8.55
2023-10-06T04:59:01.591Z,8.80
2023-10-06T05:01:32.418Z,9.43
2023-10-06T05:04:00.484Z,8.27
2023-10-06T05:06:27.710Z,8.90
2023-10-06T05:08:55.817Z,9.57
2023-10-06T05:11:24.867Z,9.75
2023-10-06T05:13:55.619Z,9.48
2023-10-06T05:16:24.927Z,11.73
2023-10-06T05:18:53.004Z,9.07
2023-10-06T05:21:21.659Z,13.13
2023-10-06T05:23:49.349Z,10.35
2023-10-06T05:26:17.470Z,9.18
2023-10-06T05:28:46.008Z,8.77
2023-10-06T05:31:13.864Z,10.07
2023-10-06T05:33:42.382Z,16.15
2023-10-06T05:36:15.755Z,13.27
2023-10-06T05:38:46.814Z,9.70
2023-10-06T05:41:14.693Z,10.10
2023-10-06T05:43:42.997Z,11.32
2023-10-06T05:46:11.405Z,14.30
2023-10-06T05:48:40.176Z,10.77
2023-10-06T05:51:11.070Z,9.88
2023-10-06T05:53:45.301Z,8.80
2023-10-06T05:56:13.490Z,10.80
2023-10-06T05:58:42.403Z,11.05
2023-10-06T06:01:20.368Z,9.13
2023-10-06T06:03:48.745Z,9.77
2023-10-06T06:06:17.708Z,8.65
2023-10-06T06:08:48.966Z,9.60
2023-10-06T06:11:17.687Z,8.45
2023-10-06T06:13:52.916Z,9.30
2023-10-06T06:16:23.413Z,9.05
2023-10-06T06:18:52.086Z,8.88
2023-10-06T06:21:26.147Z,9.38
2023-10-06T06:23:58.464Z,9.60
2023-10-06T06:26:26.348Z,9.73
2023-10-06T06:28:54.755Z,9.63
2023-10-06T06:31:22.617Z,9.50
2023-10-06T06:33:57.780Z,8.93
2023-10-06T06:36:27.720Z,10.25
2023-10-06T06:38:55.564Z,8.95
2023-10-06T06:41:22.965Z,10.82
2023-10-06T06:43:50.888Z,10.35
2023-10-06T06:46:18.555Z,10.02
2023-10-06T06:48:48.112Z,9.20
2023-10-06T06:51:15.399Z,10.63
2023-10-06T06:53:42.685Z,10.55
2023-10-06T06:56:12.291Z,10.48
2023-10-06T06:58:40.425Z,10.30
2023-10-06T07:01:16.243Z,10.05
2023-10-06T07:03:44.022Z,10.35
2023-10-06T07:06:18.348Z,11.02
2023-10-06T07:08:48.547Z,10.35
2023-10-06T07:11:17.367Z,11.50
2023-10-06T07:13:46.945Z,11.13
2023-10-06T07:16:15.814Z,10.80
2023-10-06T07:18:43.540Z,10.50
2023-10-06T07:21:12.539Z,11.52
2023-10-06T07:23:40.050Z,10.52
2023-10-06T07:26:14.905Z,10.95
2023-10-06T07:28:42.416Z,10.57
2023-10-06T07:31:14.794Z,11.23
2023-10-06T07:36:18.901Z,11.55
2023-10-06T07:38:47.301Z,11.68
2023-10-06T07:41:24.825Z,10.43
2023-10-06T07:43:53.228Z,12.07
2023-10-06T07:46:20.583Z,11.30
2023-10-06T07:48:48.191Z,10.05
2023-10-06T07:51:15.608Z,10.77
2023-10-06T07:53:44.537Z,10.55
2023-10-06T07:56:13.038Z,10.73
2023-10-06T07:58:44.788Z,11.25
2023-10-06T08:01:14.853Z,11.02
2023-10-06T08:03:42.933Z,10.73
2023-10-06T08:06:12.276Z,11.18
2023-10-06T08:08:39.764Z,11.75
2023-10-06T08:11:07.849Z,11.88
2023-10-06T08:13:35.719Z,11.43
2023-10-06T08:16:04.027Z,11.38
2023-10-06T08:18:31.711Z,10.93
2023-10-06T08:21:02.257Z,10.55
2023-10-06T08:23:33.741Z,11.88
2023-10-06T08:26:02.618Z,12.05
2023-10-06T08:28:33.063Z,11.55
2023-10-06T08:31:03.931Z,9.38
2023-10-06T08:33:31.817Z,12.00
2023-10-06T08:36:01.870Z,11.45
2023-10-06T08:38:29.992Z,11.65
2023-10-06T08:41:01.947Z,10.80
2023-10-06T08:43:29.352Z,10.98
2023-10-06T08:46:01.307Z,11.70
2023-10-06T08:48:37.481Z,14.45
2023-10-06T08:51:09.128Z,11.38
2023-10-06T08:53:42.033Z,10.73
2023-10-06T08:56:09.547Z,10.13
2023-10-06T08:58:37.372Z,9.50
2023-10-06T09:01:07.712Z,8.65
2023-10-06T09:03:36.086Z,9.95
2023-10-06T09:06:04.568Z,9.63
2023-10-06T09:08:40.969Z,16.90
2023-10-06T09:11:08.303Z,11.25
2023-10-06T09:13:35.541Z,8.80
2023-10-06T09:16:04.732Z,10.20
2023-10-06T09:18:35.897Z,9.10
2023-10-06T09:21:13.692Z,10.02
2023-10-06T09:23:44.056Z,9.07
2023-10-06T09:26:17.323Z,9.77
2023-10-06T09:28:53.569Z,9.43
2023-10-06T09:31:38.179Z,8.75
2023-10-06T09:34:10.556Z,8.63
2023-10-06T09:36:46.158Z,8.10
2023-10-06T09:39:26.172Z,8.20
2023-10-06T09:41:55.456Z,7.50
2023-10-06T09:44:24.581Z,7.30
2023-10-06T09:46:54.996Z,7.05
2023-10-06T09:49:23.105Z,6.40
2023-10-06T09:51:53.499Z,7.70
2023-10-06T09:54:21.783Z,7.10
2023-10-06T09:56:56.255Z,7.38
2023-10-06T09:59:26.256Z,7.15
2023-10-06T10:01:54.650Z,7.95
2023-10-06T10:04:25.448Z,6.70
2023-10-06T10:06:52.908Z,7.45
2023-10-06T10:09:22.347Z,6.88
2023-10-06T10:12:38.820Z,6.50
2023-10-06T10:15:38.841Z,7.13
2023-10-06T10:18:24.760Z,7.28
2023-10-06T10:20:53.075Z,6.53
2023-10-06T10:23:21.463Z,7.45
2023-10-06T10:25:48.842Z,7.55
2023-10-06T10:28:28.580Z,12.45
2023-10-06T10:31:01.328Z,7.43
2023-10-06T10:33:34.550Z,7.22
2023-10-06T10:36:13.861Z,7.65
2023-10-06T10:38:43.115Z,8.93
2023-10-06T10:41:13.219Z,7.85
2023-10-06T10:43:42.801Z,7.53
2023-10-06T10:46:10.944Z,8.10
2023-10-06T10:48:39.517Z,7.60
2023-10-06T10:51:14.480Z,7.88
2023-10-06T10:53:45.033Z,8.25
2023-10-06T10:56:27.838Z,8.02
2023-10-06T10:58:56.913Z,7.78
2023-10-06T11:01:39.998Z,7.55
2023-10-06T11:04:22.725Z,7.80
2023-10-06T11:06:50.983Z,7.40
2023-10-06T11:09:31.974Z,7.82
2023-10-06T11:12:22.676Z,8.10
2023-10-06T11:14:52.890Z,7.57
2023-10-06T11:17:30.936Z,8.15
2023-10-06T11:20:06.251Z,7.10
2023-10-06T11:22:34.501Z,8.02
2023-10-06T11:25:07.790Z,7.50
2023-10-06T11:27:35.434Z,7.55
2023-10-06T11:30:09.401Z,7.72
2023-10-06T11:32:36.877Z,8.00
2023-10-06T11:35:05.945Z,7.32
2023-10-06T11:37:34.431Z,7.53
2023-10-06T11:40:02.909Z,8.10
2023-10-06T11:42:31.515Z,8.05
2023-10-06T11:45:01.088Z,7.82
2023-10-06T11:47:30.073Z,7.00
2023-10-06T11:49:58.791Z,7.50
2023-10-06T11:52:28.162Z,7.75
2023-10-06T11:54:57.500Z,7.82
2023-10-06T11:57:46.372Z,8.13
2023-10-06T12:00:20.721Z,8.40
2023-10-06T12:02:52.713Z,7.20
2023-10-06T12:05:23.645Z,8.13
2023-10-06T12:07:51.524Z,8.93
2023-10-06T12:10:22.447Z,8.57
2023-10-06T12:12:53.484Z,8.75
2023-10-06T12:15:21.673Z,10.05
2023-10-06T12:17:49.131Z,9.73
2023-10-06T12:20:17.489Z,8.80
2023-10-06T12:22:46.062Z,8.23
2023-10-06T12:25:18.419Z,8.60
2023-10-06T12:27:46.209Z,8.85
2023-10-06T12:30:15.663Z,8.85
2023-10-06T12:32:43.230Z,9.07
2023-10-06T12:35:11.053Z,8.68
2023-10-06T12:37:42.911Z,8.93
2023-10-06T12:40:12.657Z,9.00
2023-10-06T12:42:40.611Z,9.40
2023-10-06T12:45:09.501Z,8.93
2023-10-06T12:47:39.921Z,9.18
2023-10-06T12:50:09.764Z,10.18
2023-10-06T12:52:38.398Z,9.48
2023-10-06T12:55:11.147Z,9.57
2023-10-06T12:57:39.755Z,9.02
2023-10-06T13:00:10.780Z,9.32
2023-10-06T13:02:39.389Z,9.23
2023-10-06T13:05:11.000Z,9.52
2023-10-06T13:07:40.866Z,9.07
2023-10-06T13:10:09.555Z,9.35
2023-10-06T13:12:43.419Z,9.40
2023-10-06T13:15:15.640Z,9.40
2023-10-06T13:17:43.218Z,9.60
2023-10-06T13:20:14.857Z,8.85
2023-10-06T13:22:43.878Z,9.20
2023-10-06T13:25:12.670Z,9.07
2023-10-06T13:27:50.657Z,9.52
2023-10-06T13:30:21.359Z,9.35
2023-10-06T13:32:53.773Z,8.80
2023-10-06T13:35:22.996Z,9.23
2023-10-06T13:37:50.642Z,9.52
2023-10-06T13:40:19.255Z,9.60
2023-10-06T13:42:48.933Z,9.25
2023-10-06T13:45:31.177Z,9.85
2023-10-06T13:48:04.414Z,9.52
2023-10-06T13:50:32.625Z,9.48
2023-10-06T13:53:00.015Z,9.88
2023-10-06T13:55:27.368Z,9.43
2023-10-06T13:57:59.552Z,9.90
2023-10-06T14:00:42.164Z,10.55
2023-10-06T14:03:13.626Z,10.85
2023-10-06T14:05:42.735Z,10.60
2023-10-06T14:08:15.471Z,10.73
2023-10-06T14:10:43.956Z,10.00
2023-10-06T14:13:17.366Z,10.40
2023-10-06T14:15:46.831Z,10.85
2023-10-06T14:18:15.284Z,10.35
2023-10-06T14:20:50.523Z,9.70
2023-10-06T14:23:25.263Z,9.65
2023-10-06T14:25:55.992Z,10.38
2023-10-06T14:28:24.393Z,10.20
2023-10-06T14:30:52.756Z,10.60
2023-10-06T14:33:24.740Z,9.27
2023-10-06T14:36:00.159Z,10.50
2023-10-06T14:38:33.185Z,10.02
2023-10-06T14:41:21.009Z,9.48
2023-10-06T14:44:11.497Z,9.95
2023-10-06T14:46:41.582Z,10.20
2023-10-06T14:49:14.371Z,9.32
2023-10-06T14:51:43.783Z,10.63
2023-10-06T14:54:12.498Z,10.23
2023-10-06T14:56:42.897Z,9.98
2023-10-06T14:59:11.443Z,9.40
2023-10-06T15:01:41.645Z,10.65
2023-10-06T15:04:14.397Z,9.40
2023-10-06T15:06:42.824Z,9.95
2023-10-06T15:09:19.139Z,9.60
2023-10-06T15:11:51.737Z,9.65
2023-10-06T15:14:26.549Z,9.75
2023-10-06T15:16:54.789Z,9.35
2023-10-06T15:19:26.692Z,9.48
2023-10-06T15:21:56.370Z,9.02
2023-10-06T15:24:24.094Z,9.70
2023-10-06T15:26:51.935Z,9.13
2023-10-06T15:29:21.318Z,9.05
2023-10-06T15:31:50.575Z,8.90
2023-10-06T15:34:18.982Z,9.10
2023-10-06T15:36:46.423Z,8.27
2023-10-06T15:39:20.067Z,8.60
2023-10-06T15:41:50.038Z,9.02
2023-10-06T15:44:20.194Z,8.57
2023-10-06T15:46:47.990Z,8.35
2023-10-06T15:49:20.305Z,8.90
2023-10-06T15:51:48.747Z,9.38
2023-10-06T15:54:21.497Z,9.55
2023-10-06T15:56:48.940Z,8.55
2023-10-06T15:59:17.547Z,8.48
2023-10-06T16:04:35.996Z,8.20
2023-10-06T16:07:04.658Z,8.03
2023-10-06T16:09:32.091Z,8.18
2023-10-06T16:11:59.465Z,11.30
2023-10-06T16:14:27.082Z,8.90
2023-10-06T16:16:54.501Z,8.32
2023-10-06T16:19:23.325Z,8.82
2023-10-06T16:21:52.724Z,10.05
2023-10-06T16:24:20.025Z,9.18
2023-10-06T16:26:47.429Z,9.15
2023-10-06T16:29:15.129Z,9.48
2023-10-06T16:31:42.698Z,9.77
2023-10-06T16:34:10.393Z,9.32
2023-10-06T16:36:40.166Z,9.70
2023-10-06T16:42:06.737Z,8.95
2023-10-06T16:44:34.346Z,9.77
2023-10-06T16:47:03.296Z,9.00
2023-10-06T16:49:30.619Z,9.15
2023-10-06T16:51:57.935Z,9.15
2023-10-06T16:54:25.140Z,8.68
2023-10-06T16:56:53.371Z,9.82
2023-10-06T16:59:21.161Z,9.15
2023-10-06T17:01:48.523Z,9.82
2023-10-06T17:04:19.541Z,8.95
2023-10-06T17:06:47.030Z,9.00
2023-10-06T17:09:20.141Z,9.65
2023-10-06T17:11:48.718Z,9.32
2023-10-06T17:14:16.016Z,9.48
2023-10-06T17:16:43.400Z,9.85
2023-10-06T17:19:13.576Z,10.40
2023-10-06T17:21:41.000Z,10.32
2023-10-06T17:24:11.995Z,10.07
2023-10-06T17:26:39.879Z,9.60
2023-10-06T17:29:08.617Z,10.65
2023-10-06T17:31:36.214Z,9.98
2023-10-06T17:34:03.650Z,9.70
2023-10-06T17:36:30.855Z,9.85
2023-10-06T17:39:03.397Z,9.88
2023-10-06T17:41:30.636Z,9.30
2023-10-06T17:43:58.574Z,10.18
2023-10-06T17:46:26.356Z,9.63
2023-10-06T17:48:54.950Z,9.93
2023-10-06T17:51:22.448Z,10.23
2023-10-06T17:53:50.927Z,9.45
2023-10-06T17:56:19.175Z,10.27
2023-10-06T17:58:47.139Z,12.65
2023-10-06T18:01:16.334Z,12.38
2023-10-06T18:03:44.182Z,12.65
2023-10-06T18:06:12.939Z,10.73
2023-10-06T18:08:40.305Z,9.77
2023-10-06T18:11:09.253Z,10.60
2023-10-06T18:13:37.877Z,10.90
2023-10-06T18:16:06.942Z,10.07
2023-10-06T18:18:34.610Z,10.43
2023-10-06T18:21:05.742Z,10.20
2023-10-06T18:23:32.992Z,11.20
2023-10-06T18:26:00.312Z,10.68
2023-10-06T18:28:27.698Z,10.73
2023-10-06T18:30:55.123Z,9.88
2023-10-06T18:33:22.578Z,10.68
2023-10-06T18:35:49.933Z,10.63
2023-10-06T18:38:17.587Z,11.45
2023-10-06T18:40:57.450Z,10.73
2023-10-06T18:43:25.678Z,10.85
2023-10-06T18:45:56.492Z,9.98
2023-10-06T18:48:24.772Z,10.27
2023-10-06T18:50:59.416Z,10.88
2023-10-06T18:53:27.036Z,9.80
2023-10-06T18:55:54.694Z,11.10
2023-10-06T18:58:22.259Z,10.18
2023-10-06T19:00:50.977Z,10.23
2023-10-06T19:03:23.952Z,9.95
2023-10-06T19:06:04.330Z,10.18
2023-10-06T19:08:37.057Z,11.07
2023-10-06T19:11:13.384Z,8.93
2023-10-06T19:13:41.700Z,10.07
2023-10-06T19:16:12.328Z,10.88
2023-10-06T19:18:40.421Z,9.82
2023-10-06T19:21:07.775Z,10.27
2023-10-06T19:23:35.996Z,10.20
2023-10-06T19:26:06.514Z,10.50
2023-10-06T19:28:34.369Z,10.35
2023-10-06T19:31:02.102Z,10.52
2023-10-06T19:33:32.332Z,9.80
2023-10-06T19:36:01.130Z,9.80
2023-10-06T19:38:28.694Z,10.68
2023-10-06T19:40:57.313Z,10.65
2023-10-06T19:43:25.327Z,10.35
2023-10-06T19:45:53.210Z,10.45
2023-10-06T19:48:21.563Z,9.93
2023-10-06T19:50:49.729Z,10.68
2023-10-06T19:53:17.349Z,10.32
2023-10-06T19:55:44.775Z,10.55
2023-10-06T19:58:13.220Z,9.82
2023-10-06T20:00:41.404Z,9.95
2023-10-06T20:03:09.935Z,9.48
2023-10-06T20:05:42.694Z,9.38
2023-10-06T20:08:10.081Z,9.13
2023-10-06T20:10:37.653Z,9.68
2023-10-06T20:13:08.570Z,9.52
2023-10-06T20:15:37.703Z,9.45
2023-10-06T20:18:05.385Z,9.07
2023-10-06T20:20:32.783Z,9.85
2023-10-06T20:23:00.292Z,9.27
2023-10-06T20:25:27.706Z,10.15
2023-10-06T20:27:55.577Z,10.35
2023-10-06T20:30:26.835Z,10.77
2023-10-06T20:32:57.774Z,11.02
2023-10-06T20:35:28.914Z,10.23
2023-10-06T20:37:56.772Z,10.33
2023-10-06T20:40:28.592Z,10.82
2023-10-06T20:42:57.012Z,10.80
2023-10-06T20:45:28.207Z,11.05
2023-10-06T20:47:56.914Z,10.77
2023-10-06T20:50:28.150Z,10.90
2023-10-06T20:52:55.876Z,11.13
2023-10-06T20:55:23.298Z,11.20
2023-10-06T20:57:51.227Z,10.93
2023-10-06T21:00:19.636Z,10.95
2023-10-06T21:02:48.230Z,11.90
2023-10-06T21:05:20.969Z,11.98
2023-10-06T21:07:49.684Z,10.80
2023-10-06T21:10:18.843Z,11.38
2023-10-06T21:12:46.336Z,11.25
2023-10-06T21:15:17.643Z,10.88
2023-10-06T21:17:48.615Z,10.77
2023-10-06T21:20:17.117Z,11.30
2023-10-06T21:22:44.769Z,10.98
2023-10-06T21:25:15.168Z,12.02
2023-10-06T21:27:43.217Z,11.90
2023-10-06T21:30:17.041Z,12.90
2023-10-06T21:32:46.119Z,12.65
2023-10-06T21:35:13.824Z,12.43
2023-10-06T21:37:41.181Z,12.82
2023-10-06T21:40:09.859Z,12.57
2023-10-06T21:42:37.115Z,15.52
2023-10-06T21:45:07.267Z,11.60
2023-10-06T21:47:34.785Z,12.60
2023-10-06T21:50:02.487Z,12.80
2023-10-06T21:52:30.333Z,13.55
2023-10-06T21:54:57.815Z,14.07
2023-10-06T21:57:26.682Z,12.65
2023-10-06T21:59:54.160Z,11.80
2023-10-06T22:02:22.668Z,11.20
2023-10-06T22:04:50.108Z,12.32
2023-10-06T22:07:17.373Z,12.82
2023-10-06T22:09:47.345Z,12.75
2023-10-06T22:12:14.632Z,12.75
2023-10-06T22:14:43.900Z,12.88
2023-10-06T22:17:14.197Z,13.25
2023-10-06T22:19:42.249Z,13.13
2023-10-06T22:22:11.539Z,13.10
2023-10-06T22:24:38.917Z,13.07
2023-10-06T22:27:08.375Z,14.30
2023-10-06T22:29:35.942Z,14.73
2023-10-06T22:32:05.314Z,14.68
2023-10-06T22:34:33.473Z,13.98
2023-10-06T22:37:05.435Z,13.27
2023-10-06T22:39:36.657Z,15.23
2023-10-06T22:42:05.104Z,13.45
2023-10-06T22:44:32.374Z,13.18
2023-10-06T22:46:59.683Z,12.77
2023-10-06T22:49:26.958Z,14.70
2023-10-06T22:51:54.748Z,14.00
2023-10-06T22:54:22.021Z,12.70
2023-10-06T22:56:49.277Z,13.43
2023-10-06T22:59:19.606Z,13.43
2023-10-06T23:01:47.983Z,12.45
2023-10-06T23:04:15.844Z,13.82
2023-10-06T23:06:43.696Z,12.57
2023-10-06T23:09:16.131Z,13.45
2023-10-06T23:11:45.707Z,12.30
2023-10-06T23:14:13.083Z,12.68
2023-10-06T23:16:42.461Z,12.68
2023-10-06T23:19:14.760Z,13.10
2023-10-06T23:21:47.813Z,12.95
2023-10-06T23:24:18.369Z,11.88
2023-10-06T23:26:45.640Z,11.63
2023-10-06T23:29:14.684Z,12.10
2023-10-06T23:31:42.066Z,12.45
2023-10-06T23:34:10.398Z,12.05
2023-10-06T23:36:38.125Z,11.15
2023-10-06T23:39:09.830Z,11.18
2023-10-06T23:41:38.845Z,11.50
2023-10-06T23:44:08.340Z,12.07
2023-10-06T23:46:36.031Z,11.88
2023-10-06T23:49:03.512Z,11.25
2023-10-06T23:51:33.829Z,10.43
2023-10-06T23:54:01.135Z,11.30
2023-10-06T23:56:32.227Z,10.10
2023-10-06T23:58:59.921Z,10.20
